• Join FlightAware (Why Join?)
  • Login
  • US Flag 
12:59PM EDT


 

Airport Tracker/Info


-or-


 

Live Flight TrackerFlight Track Log ✈ N895SC ✈ 16-Mar-2014 ✈ KEYW - KAPF

Flight Track Log - Related Links

Times and Time Zones

All times are in EDT time to prevent confusion due to time zone crossing. See the N895SC flight status page for this flight to view local times or setup timezone preferences in your user account.

Time Position Orientation Groundspeed Altitude Reporting Facility
EDT Latitude Longitude Course Direction KTS MPH feet Rate Location/Type
11:38PM 24.5608 -81.7175 83° East 142 163 900  Level Miami Center
11:39PM 24.5642 -81.6858 83° East 112 129 1,600 600 Climbing Miami Center
11:40PM 24.5758 -81.6475 71° East 107 123 2,200 240 Climbing Miami Center
11:41PM 24.6158 -81.6375 13° North 118 136 2,100 -60 Descending Miami Center
11:42PM 24.6636 -81.6439 353° North 131 151 2,100 60 Level Miami Center
11:43PM 24.7133 -81.6528 351° North 162 186 2,300 120 Climbing Miami Center
11:44PM 24.7675 -81.6547 358° North 178 205 2,400 240 Climbing Miami Center
11:45PM 24.8197 -81.6592 356° North 184 212 2,800 480 Climbing Miami Center
11:46PM 24.8678 -81.6586 North 178 205 3,400 840 Climbing Miami Center
11:47PM 24.9092 -81.6647 352° North 167 192 4,600 960 Climbing Miami Center
11:48PM 24.9531 -81.6689 355° North 156 180 5,400 780 Climbing Miami Center
11:49PM 24.9925 -81.6772 349° North 150 173 6,200 780 Climbing Miami Center
11:50PM 25.0297 -81.6833 352° North 140 161 7,000 540 Climbing Miami Center
11:51PM 25.0714 -81.6872 355° North 140 161 7,300 60 Climbing Miami Center
11:52PM 25.1214 -81.6892 358° North 151 174 7,200 -120 Descending Miami Center
11:53PM 25.1736 -81.6936 356° North 172 198 7,100  Descending Miami Center
11:54PM 25.2256 -81.7003 353° North 183 211 7,200  Climbing Miami Center
11:55PM 25.2817 -81.7047 356° North 183 211 7,100 -60 Descending Miami Center
11:56PM 25.3339 -81.7114 353° North 188 216 7,100  Level Miami Center
11:57PM 25.3858 -81.7158 356° North 188 216 7,100 -60 Level Miami Center
11:58PM 25.4381 -81.7178 358° North 188 216 7,000  Descending Miami Center
11:59PM 25.4900 -81.7244 353° North 188 216 7,100  Climbing Miami Center
12:00AM 25.5419 -81.7314 353° North 188 216 7,100  Level Miami Center
12:01AM 25.5939 -81.7356 356° North 188 216 7,100 -300 Level Miami Center
12:02AM 25.6458 -81.7447 351° North 188 216 6,600 -540 Descending Miami Center
12:03AM 25.6936 -81.7536 350° North 193 222 6,100 -600 Descending Miami Center
12:04AM 25.7539 -81.7653 350° North 193 222 5,400 -660 Descending Miami Center
12:05AM 25.8078 -81.7719 354° North 198 228 4,800 -660 Descending Miami Center
12:06AM 25.8661 -81.7792 354° North 198 228 4,200 -660 Descending Miami Center
12:07AM 25.9222 -81.7883 352° North 198 228 3,600 -600 Descending Miami Center